Time;durP1;ratioP1;P1;durP2;ratioP2;P2;SDS_P1;SDS_P2;PMS_P1;PMS_P2;Temp;Humidity;BMP_temperature;BMP_pressure;BME280_temperature;BME280_humidity;BME280_pressure;Samples;Min_cycle;Max_cycle;Signal;HPM_P1;HPM_P2
2023/08/14 00:00:48;;;;;;;6.93;2.25;;;;;;;-146.27;91.98;81865.94;5028106;28;20049;-68
2023/08/14 00:03:13;;;;;;;7.60;2.38;;;;;;;-146.27;91.56;81928.22;5029274;28;20096;-69
2023/08/14 00:05:39;;;;;;;8.95;2.05;;;;;;;-146.27;91.24;81878.00;5027891;28;20049;-68
2023/08/14 00:08:04;;;;;;;7.43;2.17;;;;;;;-146.27;92.12;81906.13;5023985;28;20723;-69
2023/08/14 00:10:30;;;;;;;5.50;1.98;;;;;;;-146.27;91.93;81859.94;5021801;28;20056;-69
2023/08/14 00:12:56;;;;;;;7.80;2.00;;;;;;;-146.27;90.96;81908.13;5024247;28;20042;-71
2023/08/14 00:15:22;;;;;;;5.18;2.08;;;;;;;-146.27;91.83;81871.97;5025820;28;20025;-70
2023/08/14 00:17:47;;;;;;;6.13;2.15;;;;;;;-146.27;92.71;81882.00;5018894;28;20017;-69
2023/08/14 00:20:12;;;;;;;9.93;1.85;;;;;;;-146.27;91.83;81886.03;5028091;28;20030;-69
2023/08/14 00:22:38;;;;;;;7.50;2.40;;;;;;;-146.27;92.18;81898.09;5028634;28;20440;-69
2023/08/14 00:25:03;;;;;;;9.90;2.22;;;;;;;-146.27;92.13;81914.16;5026676;28;20075;-69
2023/08/14 00:27:29;;;;;;;5.28;1.90;;;;;;;-146.27;92.33;81902.09;5022445;28;20051;-69
2023/08/14 00:29:54;;;;;;;10.20;2.55;;;;;;;-146.27;92.29;81902.09;5025206;28;20065;-67
2023/08/14 00:32:20;;;;;;;6.85;2.03;;;;;;;-146.27;93.00;81930.22;5026695;28;20029;-70
2023/08/14 00:34:45;;;;;;;9.95;2.13;;;;;;;-146.27;92.39;81932.22;5023091;28;20036;-70
2023/08/14 00:37:10;;;;;;;9.57;2.70;;;;;;;-146.27;92.63;81946.28;5016925;28;20029;-69
2023/08/14 00:39:36;;;;;;;8.15;2.00;;;;;;;-146.27;93.19;81912.16;5019612;28;20028;-67
2023/08/14 00:42:01;;;;;;;6.93;1.88;;;;;;;-146.27;93.21;81954.31;5022738;28;20064;-69
2023/08/14 00:44:28;;;;;;;5.07;2.20;;;;;;;-146.27;93.30;81954.31;5027154;28;20478;-69
2023/08/14 00:46:54;;;;;;;10.55;2.35;;;;;;;-146.27;93.71;81952.31;5019156;28;20037;-69
2023/08/14 00:49:19;;;;;;;9.75;2.40;;;;;;;-146.27;93.96;81948.31;5026054;28;20038;-69
2023/08/14 00:51:45;;;;;;;6.28;2.53;;;;;;;-146.27;93.53;81974.41;5019396;28;20092;-69
2023/08/14 00:54:10;;;;;;;4.82;2.22;;;;;;;-146.27;94.11;81970.41;5021345;28;20029;-69
2023/08/14 00:56:36;;;;;;;10.45;2.15;;;;;;;-146.27;93.92;81940.25;5020357;28;20018;-70
2023/08/14 00:59:01;;;;;;;15.75;2.75;;;;;;;-146.27;94.35;81934.25;5024634;28;20428;-68
2023/08/14 01:01:27;;;;;;;10.32;2.35;;;;;;;-146.27;93.74;81938.25;5030845;28;20076;-70
2023/08/14 01:03:53;;;;;;;6.07;2.38;;;;;;;-146.27;93.60;81956.34;5018872;28;20037;-69
2023/08/14 01:06:18;;;;;;;10.18;2.20;;;;;;;-146.27;94.16;81942.28;5017980;28;20472;-69
2023/08/14 01:08:45;;;;;;;7.18;1.85;;;;;;;-146.27;93.46;81974.41;5025349;28;20025;-69
2023/08/14 01:11:36;;;;;;;11.65;3.03;;;;;;;-146.27;94.08;81954.31;5026868;28;20033;-69
2023/08/14 01:14:13;;;;;;;9.82;2.97;;;;;;;-146.27;93.53;81942.28;5026857;28;20087;-70
2023/08/14 01:16:43;;;;;;;6.75;2.00;;;;;;;-146.27;93.68;81986.47;5030916;28;20032;-69
2023/08/14 01:19:20;;;;;;;9.60;2.90;;;;;;;-146.27;94.23;81976.41;5020694;28;20029;-68
2023/08/14 01:22:12;;;;;;;6.97;2.15;;;;;;;-146.27;94.50;81994.50;5027203;28;20033;-70
2023/08/14 01:24:49;;;;;;;6.85;2.10;;;;;;;-146.27;95.53;82012.56;5019656;28;20392;-69
2023/08/14 01:27:16;;;;;;;4.80;2.28;;;;;;;-146.27;95.02;81982.44;5029930;28;20026;-69
2023/08/14 01:29:42;;;;;;;10.05;2.60;;;;;;;-146.27;95.50;82006.53;5023570;28;20033;-70
2023/08/14 01:32:07;;;;;;;10.23;2.33;;;;;;;-146.27;95.43;82026.63;5030267;28;20030;-69
2023/08/14 01:34:33;;;;;;;13.40;2.67;;;;;;;-146.27;95.49;82004.53;5030225;28;20398;-70
2023/08/14 01:37:21;;;;;;;8.18;2.50;;;;;;;-146.27;94.96;82012.56;5030926;28;20139;-69
2023/08/14 01:39:51;;;;;;;8.32;2.60;;;;;;;-146.27;95.22;82006.53;5020840;28;20076;-68
2023/08/14 01:42:32;;;;;;;7.55;2.33;;;;;;;-146.27;95.33;82078.84;5028588;28;20029;-69
2023/08/14 01:45:02;;;;;;;10.27;3.25;;;;;;;-146.27;94.82;82028.66;5030613;28;20523;-68
2023/08/14 01:47:30;;;;;;;8.65;2.83;;;;;;;-146.27;94.75;82038.69;5029608;28;20788;-69
2023/08/14 01:49:56;;;;;;;8.60;2.65;;;;;;;-146.27;94.83;82046.72;5029965;28;20025;-69
2023/08/14 01:52:22;;;;;;;9.45;2.58;;;;;;;-146.27;95.97;82058.78;5030591;28;20030;-71
2023/08/14 01:54:48;;;;;;;9.32;3.25;;;;;;;-146.27;95.33;82078.84;5028059;28;20591;-69
2023/08/14 01:57:13;;;;;;;8.07;3.03;;;;;;;-146.27;95.83;82050.75;5029971;28;20136;-70
2023/08/14 01:59:44;;;;;;;10.77;2.60;;;;;;;-146.27;95.29;82074.84;5025637;28;20665;-68
2023/08/14 02:02:13;;;;;;;9.05;3.42;;;;;;;-146.27;96.06;82086.91;5030690;28;20037;-69
2023/08/14 02:04:39;;;;;;;6.05;2.88;;;;;;;-146.27;96.24;82125.06;5030163;28;20033;-71
2023/08/14 02:07:09;;;;;;;8.35;2.67;;;;;;;-146.27;96.52;82102.97;5029041;28;20057;-69
2023/08/14 02:09:35;;;;;;;12.68;2.78;;;;;;;-146.27;96.35;82143.13;5029400;28;20033;-70
2023/08/14 02:12:00;;;;;;;9.02;2.63;;;;;;;-146.27;96.57;82139.13;5030648;28;20228;-71
2023/08/14 02:14:26;;;;;;;11.73;3.15;;;;;;;-146.27;96.92;82113.00;5027552;28;20025;-69
2023/08/14 02:16:51;;;;;;;8.75;3.20;;;;;;;-146.27;96.06;82171.25;5028128;28;20033;-70
2023/08/14 02:19:17;;;;;;;10.57;3.08;;;;;;;-146.27;95.64;82155.19;5030100;28;20471;-70
2023/08/14 02:21:42;;;;;;;12.57;3.17;;;;;;;-146.27;95.88;82199.38;5024319;28;20025;-70
2023/08/14 02:24:08;;;;;;;9.27;2.78;;;;;;;-146.27;96.32;82211.44;5029354;28;20017;-69
2023/08/14 02:26:33;;;;;;;13.93;3.25;;;;;;;-146.27;97.35;82199.38;5029175;28;20032;-70
2023/08/14 02:28:59;;;;;;;8.75;3.20;;;;;;;-146.27;97.05;82209.44;5030168;28;20067;-69
2023/08/14 02:31:24;;;;;;;6.75;3.05;;;;;;;-146.27;96.60;82209.44;5027267;28;20036;-69
2023/08/14 02:33:49;;;;;;;12.98;3.22;;;;;;;-146.27;97.35;82167.25;5031031;28;20434;-70
2023/08/14 02:36:15;;;;;;;7.28;2.85;;;;;;;-146.27;97.62;82171.25;5029335;28;20018;-69
2023/08/14 02:38:40;;;;;;;7.55;2.75;;;;;;;-146.27;97.18;82171.25;5017834;28;20026;-69
2023/08/14 02:41:06;;;;;;;10.10;2.72;;;;;;;-146.27;96.76;82179.28;5024993;28;20112;-70
2023/08/14 02:43:32;;;;;;;6.53;2.60;;;;;;;-146.27;96.25;82139.13;5027545;28;20389;-70
2023/08/14 02:45:57;;;;;;;11.43;2.33;;;;;;;-146.27;96.17;82163.22;5021664;28;20017;-69
2023/08/14 02:48:23;;;;;;;5.68;2.30;;;;;;;-146.27;96.31;82151.16;5025842;28;20033;-69
2023/08/14 02:50:49;;;;;;;8.68;2.33;;;;;;;-146.27;95.94;82221.47;5025348;28;20027;-70
2023/08/14 02:53:14;;;;;;;4.65;2.30;;;;;;;-146.27;95.72;82191.34;5027104;28;20028;-69
2023/08/14 02:55:40;;;;;;;6.15;2.33;;;;;;;-146.27;96.43;82203.41;5023530;28;20029;-69
2023/08/14 02:58:05;;;;;;;3.60;2.28;;;;;;;-146.27;96.22;82163.22;5028656;28;20025;-70
2023/08/14 03:00:30;;;;;;;4.85;2.30;;;;;;;-146.27;95.95;82195.38;5027134;28;20437;-69
2023/08/14 03:02:56;;;;;;;8.13;2.47;;;;;;;-146.27;95.66;82185.31;5022432;28;20041;-70
2023/08/14 03:05:21;;;;;;;6.93;2.97;;;;;;;-146.27;95.22;82207.41;5027222;28;20054;-70
2023/08/14 03:07:47;;;;;;;4.63;2.03;;;;;;;-146.27;95.36;82237.53;5021970;28;20110;-69
2023/08/14 03:10:12;;;;;;;8.93;2.15;;;;;;;-146.27;95.77;82245.59;5023044;28;20071;-69
2023/08/14 03:12:37;;;;;;;5.05;2.15;;;;;;;-146.27;96.30;82209.44;5027739;28;20108;-70
2023/08/14 03:15:05;;;;;;;6.78;2.40;;;;;;;-146.27;94.88;82227.50;5021079;28;20018;-69
2023/08/14 03:17:30;;;;;;;7.43;1.83;;;;;;;-146.27;95.45;82267.69;5016764;28;20096;-69
2023/08/14 03:19:55;;;;;;;3.97;2.10;;;;;;;-146.27;96.82;82217.47;5026383;28;20025;-69
2023/08/14 03:22:21;;;;;;;6.25;2.72;;;;;;;-146.27;96.51;82199.38;5025525;28;20025;-70
2023/08/14 03:24:46;;;;;;;8.95;2.40;;;;;;;-146.27;95.41;82259.66;5015979;28;20430;-70
2023/08/14 03:27:11;;;;;;;8.73;2.38;;;;;;;-146.27;95.82;82237.53;5027026;28;20136;-69
2023/08/14 03:29:37;;;;;;;5.70;2.70;;;;;;;-146.27;95.91;82243.56;5026630;28;20385;-70
2023/08/14 03:32:02;;;;;;;9.45;2.50;;;;;;;-146.27;96.49;82247.59;5026048;28;20392;-69
2023/08/14 03:34:27;;;;;;;6.78;2.30;;;;;;;-146.27;95.85;82267.69;5029045;28;20425;-70
2023/08/14 03:36:53;;;;;;;6.10;2.40;;;;;;;-146.27;95.59;82293.78;5023299;28;20023;-70
2023/08/14 03:39:18;;;;;;;8.45;2.13;;;;;;;-146.27;97.29;82281.75;5028569;28;20029;-70
2023/08/14 03:41:44;;;;;;;9.30;2.65;;;;;;;-146.27;97.66;82261.66;5026896;28;20026;-69
2023/08/14 03:44:10;;;;;;;5.28;2.30;;;;;;;-146.27;95.61;82235.53;5026909;28;20041;-70
2023/08/14 03:46:35;;;;;;;2.38;1.73;;;;;;;-146.27;97.25;82263.66;5026736;28;20025;-69
2023/08/14 03:49:00;;;;;;;8.20;2.35;;;;;;;-146.27;97.07;82283.75;5027120;28;20033;-70
2023/08/14 03:51:26;;;;;;;5.50;2.50;;;;;;;-146.27;97.02;82247.59;5026769;28;20036;-69
2023/08/14 03:53:51;;;;;;;5.30;2.20;;;;;;;-146.27;97.22;82271.69;5027037;28;20559;-68
2023/08/14 03:56:16;;;;;;;8.55;2.75;;;;;;;-146.27;97.00;82239.56;5027078;28;20021;-69
2023/08/14 03:58:42;;;;;;;9.13;2.75;;;;;;;-146.27;96.50;82235.53;5026971;28;20500;-69
2023/08/14 04:01:07;;;;;;;7.30;2.67;;;;;;;-146.27;96.64;82259.66;5021153;28;20029;-70
2023/08/14 04:03:32;;;;;;;5.82;2.67;;;;;;;-146.27;96.92;82253.63;5023126;28;20055;-70
2023/08/14 04:05:58;;;;;;;7.32;2.60;;;;;;;-146.27;96.96;82253.63;5025670;28;20049;-68
2023/08/14 04:08:23;;;;;;;4.65;2.28;;;;;;;-146.27;97.22;82235.53;5024174;28;20052;-68
2023/08/14 04:10:57;;;;;;;4.15;2.42;;;;;;;-146.27;96.92;82229.50;5025744;28;20033;-69
2023/08/14 04:13:23;;;;;;;5.15;2.05;;;;;;;-146.27;96.20;82223.47;5028147;28;20021;-70
2023/08/14 04:15:49;;;;;;;5.68;2.20;;;;;;;-146.27;95.85;82233.53;5026788;28;20060;-70
2023/08/14 04:18:14;;;;;;;6.93;2.17;;;;;;;-146.27;95.17;82215.44;5023837;28;20056;-69
2023/08/14 04:20:40;;;;;;;7.75;2.47;;;;;;;-146.27;94.62;82191.34;5022363;28;20053;-69
2023/08/14 04:23:06;;;;;;;2.72;1.88;;;;;;;-146.27;94.70;82185.31;5012672;28;20025;-70
2023/08/14 04:25:31;;;;;;;4.18;1.88;;;;;;;-146.27;94.08;82199.38;5023358;28;20064;-69
2023/08/14 04:27:56;;;;;;;4.13;2.20;;;;;;;-146.27;94.31;82195.38;5025899;28;20032;-69
2023/08/14 04:30:22;;;;;;;5.20;2.28;;;;;;;-146.27;94.43;82195.38;5025437;28;20017;-70
2023/08/14 04:32:47;;;;;;;3.97;2.03;;;;;;;-146.27;93.78;82169.25;5022278;28;20034;-68
2023/08/14 04:35:12;;;;;;;3.60;1.92;;;;;;;-146.27;93.97;82219.47;5029859;28;20037;-70
2023/08/14 04:37:38;;;;;;;8.35;1.90;;;;;;;-146.27;93.73;82231.53;5026504;28;20013;-68
2023/08/14 04:40:04;;;;;;;4.53;2.00;;;;;;;-146.27;95.06;82211.44;5030851;28;20024;-70
2023/08/14 04:42:31;;;;;;;7.13;1.85;;;;;;;-146.27;94.75;82219.47;5028203;28;20029;-70
2023/08/14 04:44:57;;;;;;;3.47;1.80;;;;;;;-146.27;94.46;82231.53;5030796;28;20112;-70
2023/08/14 04:47:22;;;;;;;8.27;1.92;;;;;;;-146.27;94.67;82141.13;5028295;28;20108;-69
2023/08/14 04:49:47;;;;;;;3.88;2.00;;;;;;;-146.27;93.78;82191.34;5028121;28;20125;-71
2023/08/14 04:52:13;;;;;;;5.80;2.35;;;;;;;-146.27;93.22;82175.28;5022339;28;20133;-71
2023/08/14 04:54:38;;;;;;;6.25;2.40;;;;;;;-146.27;93.18;82207.41;5031361;28;20064;-71
2023/08/14 04:57:04;;;;;;;3.75;1.80;;;;;;;-146.27;93.48;82163.22;5030485;28;20044;-70
2023/08/14 04:59:29;;;;;;;7.13;2.67;;;;;;;-146.27;93.99;82183.31;5032168;28;20033;-69
2023/08/14 05:01:55;;;;;;;7.20;2.03;;;;;;;-146.27;94.02;82187.31;5030294;28;20022;-70
2023/08/14 05:04:21;;;;;;;5.85;1.98;;;;;;;-146.27;94.46;82191.34;5031665;28;20039;-70
2023/08/14 05:06:47;;;;;;;4.63;2.05;;;;;;;-146.27;94.64;82171.25;5025272;28;20049;-69
2023/08/14 05:09:12;;;;;;;3.65;1.73;;;;;;;-146.27;94.84;82193.34;5022136;28;20052;-70
2023/08/14 05:11:39;;;;;;;3.50;1.80;;;;;;;-146.27;94.97;82175.28;5023064;28;21832;-70
2023/08/14 05:14:04;;;;;;;6.10;2.58;;;;;;;-146.27;95.55;82131.09;5022899;28;20053;-70
2023/08/14 05:16:29;;;;;;;7.43;2.42;;;;;;;-146.27;95.69;82175.28;5025860;28;20057;-69
2023/08/14 05:18:55;;;;;;;5.22;2.20;;;;;;;-146.27;94.81;82171.25;5023800;28;20072;-70
2023/08/14 05:21:20;;;;;;;6.57;2.50;;;;;;;-146.27;95.45;82147.16;5022684;28;20477;-71
2023/08/14 05:23:46;;;;;;;11.43;2.97;;;;;;;-146.27;95.21;82165.22;5020225;28;20033;-73
2023/08/14 05:26:11;;;;;;;12.02;2.30;;;;;;;-146.27;94.18;82183.31;5024228;28;20029;-72
2023/08/14 05:28:36;;;;;;;8.25;2.20;;;;;;;-146.27;94.89;82143.13;5026458;28;20029;-73
2023/08/14 05:31:02;;;;;;;4.40;2.03;;;;;;;-146.27;95.43;82175.28;5028849;28;20026;-73
2023/08/14 05:33:27;;;;;;;3.65;2.10;;;;;;;-146.27;95.30;82163.22;5031143;28;20033;-73
2023/08/14 05:35:52;;;;;;;7.05;2.25;;;;;;;-146.27;94.43;82127.06;5027447;28;20118;-73
2023/08/14 05:38:18;;;;;;;7.22;2.45;;;;;;;-146.27;95.28;82113.00;5031122;28;20489;-72
2023/08/14 05:40:43;;;;;;;6.75;3.40;;;;;;;-146.27;95.13;82106.97;5026725;28;20160;-73
2023/08/14 05:43:11;;;;;;;10.27;2.97;;;;;;;-146.27;94.49;82111.00;5027057;28;20030;-73
2023/08/14 05:45:38;;;;;;;3.35;2.50;;;;;;;-146.27;94.72;82102.97;5029822;28;20496;-69
2023/08/14 05:48:06;;;;;;;7.60;2.95;;;;;;;-146.27;95.77;82080.88;5031113;28;20031;-69
2023/08/14 05:50:32;;;;;;;2.90;2.15;;;;;;;-146.27;94.70;82080.88;5031099;28;20516;-68
2023/08/14 05:53:00;;;;;;;6.45;2.95;;;;;;;-146.27;94.46;82058.78;5030540;28;20034;-71
2023/08/14 05:55:26;;;;;;;6.65;3.00;;;;;;;-146.27;94.74;82062.78;5024941;28;20564;-68
2023/08/14 05:57:52;;;;;;;10.95;2.67;;;;;;;-146.27;95.15;82038.69;5026661;28;20471;-69
2023/08/14 06:00:19;;;;;;;4.90;2.50;;;;;;;-146.27;94.02;82056.75;5026920;28;20029;-69
2023/08/14 06:02:45;;;;;;;11.52;3.05;;;;;;;-146.27;94.59;82028.66;5029169;28;20025;-69
2023/08/14 06:05:10;;;;;;;6.25;2.70;;;;;;;-146.27;95.04;82022.63;5030765;28;20102;-68
2023/08/14 06:07:36;;;;;;;8.30;2.85;;;;;;;-146.27;94.27;82000.53;5029145;28;20026;-67
2023/08/14 06:10:03;;;;;;;7.38;2.95;;;;;;;-146.27;94.12;82006.53;5029081;28;20079;-69
2023/08/14 06:12:29;;;;;;;6.35;3.30;;;;;;;-146.27;93.67;81994.50;5028151;28;20245;-69
2023/08/14 06:14:55;;;;;;;9.80;3.22;;;;;;;-146.27;93.11;81982.44;5028825;28;20041;-69
2023/08/14 06:17:20;;;;;;;5.70;2.65;;;;;;;-146.27;92.20;81956.34;5026325;28;20043;-68
2023/08/14 06:19:45;;;;;;;10.10;3.85;;;;;;;-146.27;91.52;81962.34;5027994;28;20071;-69
2023/08/14 06:22:11;;;;;;;6.88;2.97;;;;;;;-146.27;91.34;81954.31;5027479;28;20029;-70
2023/08/14 06:24:36;;;;;;;11.50;3.83;;;;;;;-146.27;91.07;81934.25;5028871;28;20124;-69
2023/08/14 06:27:01;;;;;;;5.53;3.10;;;;;;;-146.27;90.70;81910.13;5029257;28;20056;-68
2023/08/14 06:29:27;;;;;;;8.20;3.95;;;;;;;-146.27;89.99;81918.16;5026580;28;20112;-69
2023/08/14 06:31:52;;;;;;;8.65;3.85;;;;;;;-146.27;89.66;81890.06;5026415;28;20406;-69
2023/08/14 06:34:17;;;;;;;7.47;3.33;;;;;;;-146.27;89.39;81859.94;5024220;28;20032;-66
2023/08/14 06:36:43;;;;;;;11.15;3.90;;;;;;;-146.27;89.87;81837.81;5027046;28;20032;-69
2023/08/14 06:39:08;;;;;;;13.30;3.90;;;;;;;-146.27;89.21;81837.81;5025443;28;20037;-68
2023/08/14 06:41:34;;;;;;;14.93;3.97;;;;;;;-146.27;89.10;81815.72;5026657;28;20025;-74
2023/08/14 06:43:59;;;;;;;12.20;3.45;;;;;;;-146.27;88.75;81847.88;5023700;28;20026;-75
2023/08/14 06:46:24;;;;;;;8.27;3.50;;;;;;;-146.27;88.60;81813.72;5030919;28;20120;-74
2023/08/14 06:48:50;;;;;;;12.02;4.20;;;;;;;-146.27;88.03;81801.69;5030701;28;20033;-74
2023/08/14 06:51:15;;;;;;;6.75;3.75;;;;;;;-146.27;87.86;81823.78;5029996;28;20072;-75
2023/08/14 06:53:41;;;;;;;7.25;3.35;;;;;;;-146.27;87.74;81817.75;5031342;28;20033;-74
2023/08/14 06:56:06;;;;;;;8.95;3.75;;;;;;;-146.27;88.46;81781.59;5028944;28;20029;-76
2023/08/14 06:58:31;;;;;;;5.63;4.13;;;;;;;-146.27;88.32;81781.59;5027608;28;20113;-74
2023/08/14 07:00:57;;;;;;;9.55;3.80;;;;;;;-146.27;88.18;81769.53;5028974;28;20033;-76
2023/08/14 07:03:22;;;;;;;8.55;3.80;;;;;;;-146.27;86.78;81725.34;5031206;28;20021;-76
2023/08/14 07:05:48;;;;;;;12.73;4.00;;;;;;;-146.27;86.39;81697.22;5029572;28;20096;-75
2023/08/14 07:08:13;;;;;;;7.68;3.47;;;;;;;-146.27;86.58;81703.25;5031197;28;20437;-74
2023/08/14 07:10:39;;;;;;;6.63;3.22;;;;;;;-146.27;86.36;81659.06;5027466;28;20400;-76
2023/08/14 07:13:06;;;;;;;7.35;3.33;;;;;;;-146.27;85.62;81616.91;5026397;28;20053;-76
2023/08/14 07:15:31;;;;;;;5.82;2.20;;;;;;;-146.27;83.58;81612.88;5031171;28;20053;-75
2023/08/14 07:17:57;;;;;;;6.15;2.17;;;;;;;-146.27;81.44;81596.81;5028993;28;20547;-75
2023/08/14 07:20:22;;;;;;;6.05;2.25;;;;;;;-146.27;80.31;81624.94;5027786;28;20124;-75
2023/08/14 07:22:48;;;;;;;4.30;2.10;;;;;;;-146.27;79.93;81610.88;5027902;28;20020;-75
2023/08/14 07:25:13;;;;;;;4.57;1.80;;;;;;;-146.27;79.59;81608.88;5028803;28;20025;-75
2023/08/14 07:27:38;;;;;;;4.93;1.77;;;;;;;-146.27;78.97;81604.84;5029035;28;20116;-74
2023/08/14 07:30:05;;;;;;;4.25;1.70;;;;;;;-146.27;77.53;81612.88;5028735;28;20025;-75
2023/08/14 07:32:31;;;;;;;5.93;1.80;;;;;;;-146.27;78.23;81612.88;5028325;28;20517;-75
2023/08/14 07:34:56;;;;;;;6.38;1.92;;;;;;;-146.27;78.79;81588.78;5044624;28;20121;-76
2023/08/14 07:37:23;;;;;;;5.07;1.70;;;;;;;-146.27;78.63;81608.88;5029883;28;20431;-76
2023/08/14 07:39:48;;;;;;;4.70;1.80;;;;;;;-146.27;78.69;81560.66;5030089;28;20489;-75
2023/08/14 07:42:13;;;;;;;3.50;1.77;;;;;;;-146.27;77.94;81544.59;5028517;28;20028;-75
2023/08/14 07:44:39;;;;;;;4.50;1.98;;;;;;;-146.27;77.26;81494.38;5028790;28;20106;-75
2023/08/14 07:47:04;;;;;;;4.55;1.55;;;;;;;-146.27;77.31;81446.19;5030879;28;20017;-74
2023/08/14 07:49:33;;;;;;;3.53;1.45;;;;;;;-146.27;76.34;81440.16;5030269;28;20087;-74
2023/08/14 07:51:59;;;;;;;7.72;1.55;;;;;;;-146.27;76.69;81414.06;5024428;28;20029;-75
2023/08/14 07:54:25;;;;;;;5.43;1.58;;;;;;;-146.27;76.62;81369.88;5017067;28;20033;-74
2023/08/14 07:56:52;;;;;;;4.70;1.45;;;;;;;-146.27;76.17;81327.69;5027625;28;20084;-73
2023/08/14 07:59:19;;;;;;;8.10;1.58;;;;;;;-146.27;75.51;81319.66;5022849;28;20021;-76
2023/08/14 08:01:44;;;;;;;4.18;1.70;;;;;;;-146.27;74.74;81283.50;5029898;28;20148;-74
2023/08/14 08:04:09;;;;;;;2.90;1.30;;;;;;;-146.27;73.50;81207.19;5043092;28;20064;-76
2023/08/14 08:06:35;;;;;;;3.00;1.20;;;;;;;-146.27;73.06;81181.09;5028944;28;20069;-75
2023/08/14 08:09:00;;;;;;;2.78;1.00;;;;;;;-146.27;72.10;81175.06;5044713;28;20057;-73
2023/08/14 08:11:26;;;;;;;2.22;1.10;;;;;;;-146.27;72.90;81098.75;5030882;28;20021;-75
2023/08/14 08:13:51;;;;;;;3.85;1.88;;;;;;;-146.27;73.23;81078.69;5023914;28;20548;-74
2023/08/14 08:16:17;;;;;;;5.70;1.40;;;;;;;-146.27;72.83;81050.56;5034302;28;20473;-75
2023/08/14 08:18:42;;;;;;;3.00;0.90;;;;;;;-146.27;72.24;81014.41;5051381;28;20036;-76
2023/08/14 08:21:08;;;;;;;5.20;0.90;;;;;;;-146.27;70.70;81002.38;5032264;28;20436;-74
2023/08/14 08:23:33;;;;;;;3.30;0.70;;;;;;;-146.27;68.77;80964.22;5029948;28;20066;-75
2023/08/14 08:25:58;;;;;;;4.00;0.90;;;;;;;-146.27;68.13;80936.09;5025325;28;20102;-75
2023/08/14 08:28:24;;;;;;;3.30;0.93;;;;;;;-146.27;65.66;80905.97;5031721;28;20614;-74
2023/08/14 08:30:49;;;;;;;2.85;0.90;;;;;;;-146.27;65.17;80879.88;5030873;28;20017;-74
2023/08/14 08:33:15;;;;;;;2.28;1.00;;;;;;;-146.27;65.63;80905.97;5031923;28;20407;-75
2023/08/14 08:35:40;;;;;;;1.20;0.70;;;;;;;-146.27;66.24;80869.84;5032545;28;20446;-73
2023/08/14 08:38:08;;;;;;;2.72;0.75;;;;;;;-146.27;66.38;80805.56;5033893;28;20041;-75
2023/08/14 08:40:36;;;;;;;5.65;0.90;;;;;;;-146.27;65.81;80709.19;5033154;28;20473;-77
2023/08/14 08:43:02;;;;;;;3.53;0.93;;;;;;;-146.27;65.66;80757.38;5033042;28;20032;-75
2023/08/14 08:45:34;;;;;;;3.08;1.10;;;;;;;-146.27;64.38;80733.28;5032306;28;20497;-76
2023/08/14 08:48:02;;;;;;;3.08;0.90;;;;;;;-146.27;63.98;80685.09;5031802;28;20485;-74
2023/08/14 08:50:31;;;;;;;4.45;1.38;;;;;;;-146.27;64.83;80640.94;5033515;28;20473;-77
2023/08/14 08:52:58;;;;;;;4.63;1.08;;;;;;;-146.27;64.68;80628.88;5034360;28;20084;-76
2023/08/14 08:55:26;;;;;;;2.60;1.17;;;;;;;-146.27;64.12;80578.69;5049768;28;20048;-78
2023/08/14 08:57:56;;;;;;;3.63;1.40;;;;;;;-146.27;63.53;80564.63;5030631;28;20373;-79
2023/08/14 09:00:22;;;;;;;3.63;0.95;;;;;;;-146.27;63.06;80488.31;5032935;28;20025;-78
2023/08/14 09:02:47;;;;;;;2.72;1.08;;;;;;;-146.27;63.79;80484.31;5029118;28;20021;-78
2023/08/14 09:05:17;;;;;;;4.55;1.05;;;;;;;-146.27;62.95;80506.41;5022425;28;20097;-77
2023/08/14 09:07:43;;;;;;;3.28;1.20;;;;;;;-146.27;61.74;80420.06;5030463;28;20121;-77
2023/08/14 09:10:09;;;;;;;3.45;1.17;;;;;;;-146.27;61.46;80436.13;5031833;28;20170;-77
2023/08/14 09:12:43;;;;;;;2.83;1.33;;;;;;;-146.27;62.07;80446.16;5031051;28;20112;-78
2023/08/14 09:15:09;;;;;;;3.20;1.15;;;;;;;-146.27;61.90;80428.09;5031554;28;20040;-77
2023/08/14 09:17:35;;;;;;;4.32;1.33;;;;;;;-146.27;63.16;80393.97;5030461;28;20030;-78
2023/08/14 09:20:02;;;;;;;3.05;1.35;;;;;;;-146.27;63.41;80353.81;5031508;28;20025;-77
2023/08/14 09:22:28;;;;;;;5.28;1.33;;;;;;;-146.27;62.21;80323.69;5024913;28;20503;-78
2023/08/14 09:24:56;;;;;;;4.10;1.15;;;;;;;-146.27;62.03;80253.41;5029485;28;20033;-78
2023/08/14 09:27:23;;;;;;;2.88;1.33;;;;;;;-146.27;63.32;80217.28;5030164;28;20485;-77
2023/08/14 09:29:52;;;;;;;6.53;1.48;;;;;;;-146.27;61.35;80163.06;5029541;28;20022;-78
2023/08/14 09:32:25;;;;;;;6.28;1.50;;;;;;;-146.27;60.81;80171.09;5032432;28;20052;-79
2023/08/14 09:35:02;;;;;;;5.55;1.38;;;;;;;-146.27;61.48;80151.03;5032241;28;20017;-79
2023/08/14 09:37:27;;;;;;;2.85;1.17;;;;;;;-146.27;61.57;80106.84;5021574;28;20056;-78
2023/08/14 09:40:14;;;;;;;3.35;1.60;;;;;;;-146.27;60.95;80062.69;5021483;28;20509;-77
2023/08/14 09:42:42;;;;;;;3.38;1.50;;;;;;;-146.27;62.01;80046.63;5024118;28;20025;-77
2023/08/14 09:45:07;;;;;;;10.90;2.10;;;;;;;-146.27;60.85;79978.38;5031148;28;20048;-79
2023/08/14 09:47:34;;;;;;;5.32;1.33;;;;;;;-146.27;61.49;80004.47;5030197;28;20068;-79
2023/08/14 09:49:59;;;;;;;6.65;1.60;;;;;;;-146.27;62.05;79902.06;5030507;28;20025;-77
2023/08/14 09:52:28;;;;;;;7.88;1.70;;;;;;;-146.27;59.01;79896.06;5030456;28;20021;-77
2023/08/14 09:54:54;;;;;;;9.07;2.45;;;;;;;-146.27;59.07;79970.34;5031578;28;20508;-77
2023/08/14 09:57:26;;;;;;;7.82;1.60;;;;;;;-146.27;58.69;79996.44;5031549;28;20026;-78
2023/08/14 09:59:51;;;;;;;7.68;1.42;;;;;;;-146.27;58.06;79958.28;5032475;28;20394;-77
2023/08/14 10:02:21;;;;;;;11.50;2.28;;;;;;;-146.27;58.46;79918.13;5029915;28;20077;-78
2023/08/14 10:04:47;;;;;;;2.30;1.05;;;;;;;-146.27;55.58;80020.53;5029486;28;20112;-78
2023/08/14 10:07:13;;;;;;;7.38;1.70;;;;;;;-146.27;54.76;80014.50;5031877;28;20489;-78
2023/08/14 10:09:49;;;;;;;7.53;1.02;;;;;;;-146.27;55.87;79978.38;5031624;28;20171;-79
2023/08/14 10:12:22;;;;;;;3.85;1.02;;;;;;;-146.27;57.43;79869.94;5032016;28;20059;-78
2023/08/14 10:14:59;;;;;;;6.60;1.70;;;;;;;-146.27;57.23;79815.75;5032169;28;20381;-77
2023/08/14 10:17:31;;;;;;;4.78;1.50;;;;;;;-146.27;57.80;79723.41;5032336;28;20033;-78
2023/08/14 10:20:03;;;;;;;6.60;1.80;;;;;;;-146.27;55.96;79731.44;5030727;28;20053;-78
2023/08/14 10:22:28;;;;;;;3.67;1.30;;;;;;;-146.27;55.92;79717.38;5032444;28;20103;-78
2023/08/14 10:24:54;;;;;;;6.10;1.50;;;;;;;-146.27;55.34;79789.66;5032192;28;20076;-77
2023/08/14 10:27:21;;;;;;;5.18;1.60;;;;;;;-146.27;54.79;79757.53;5029992;28;20056;-78
2023/08/14 10:29:48;;;;;;;5.13;1.40;;;;;;;-146.27;53.74;79745.50;5029922;28;20551;-78
2023/08/14 10:32:14;;;;;;;5.88;1.30;;;;;;;-146.27;53.92;79617.00;5030949;28;20057;-77
2023/08/14 10:34:40;;;;;;;5.60;1.20;;;;;;;-146.27;50.19;79679.25;5029637;28;20512;-78
2023/08/14 10:37:06;;;;;;;7.20;1.52;;;;;;;-146.27;50.06;79641.09;5032024;28;20021;-77
2023/08/14 10:39:34;;;;;;;4.88;1.30;;;;;;;-146.27;50.42;79602.97;5031817;28;20040;-79
2023/08/14 10:42:00;;;;;;;7.05;1.33;;;;;;;-146.27;50.39;79625.03;5027063;28;20030;-78
2023/08/14 10:44:32;;;;;;;5.82;2.03;;;;;;;-146.27;53.72;79604.97;5029106;28;20108;-78
2023/08/14 10:47:10;;;;;;;6.25;1.60;;;;;;;-146.27;52.02;79608.97;5031035;28;20492;-79
2023/08/14 10:49:44;;;;;;;5.75;1.30;;;;;;;-146.27;52.64;79574.84;5032748;28;20044;-79
2023/08/14 10:52:19;;;;;;;4.43;1.35;;;;;;;-146.27;49.12;79592.91;5031149;28;20095;-77
2023/08/14 10:54:50;;;;;;;5.10;1.27;;;;;;;-146.27;50.55;79548.75;5031122;28;20029;-78
2023/08/14 10:57:16;;;;;;;6.80;1.60;;;;;;;-146.27;48.44;79440.34;5027841;28;20088;-78
2023/08/14 10:59:41;;;;;;;7.63;1.38;;;;;;;-146.27;48.55;79512.63;5030866;28;20034;-78
2023/08/14 11:02:10;;;;;;;8.43;1.50;;;;;;;-146.27;48.70;79388.16;5030787;28;20029;-78
2023/08/14 11:04:57;;;;;;;4.65;1.40;;;;;;;-146.27;48.72;79338.00;5032140;28;20029;-77
2023/08/14 11:07:26;;;;;;;4.10;1.33;;;;;;;-146.27;49.19;79283.78;5029674;28;20520;-78
2023/08/14 11:09:51;;;;;;;6.55;1.48;;;;;;;-146.27;49.05;79233.63;5031873;28;20053;-77
2023/08/14 11:12:17;;;;;;;5.88;1.55;;;;;;;-146.27;46.88;79159.34;5020061;28;20152;-76
2023/08/14 11:14:42;;;;;;;8.27;1.52;;;;;;;-146.27;47.40;79147.31;5022125;28;20108;-74